CST,Max TemperatureF,Mean TemperatureF,Min TemperatureF,Max Dew PointF,MeanDew PointF,Min DewpointF,Max Humidity, Mean Humidity, Min Humidity, Max Sea Level PressureIn, Mean Sea Level PressureIn, Min Sea Level PressureIn, Max VisibilityMiles, Mean VisibilityMiles, Min VisibilityMiles, Max Wind SpeedMPH, Mean Wind SpeedMPH, Max Gust SpeedMPH,PrecipitationIn, CloudCover, Events, WindDirDegrees
2012-11-1,47,42,38,41,39,36,98,91,73,30.07,30.00,29.94,10,5,1,18,9,22,0.00,6,,35
2012-11-2,42,38,34,36,33,30,94,81,73,30.13,29.99,29.90,10,10,5,16,8,,0.00,4,,96
2012-11-3,53,39,25,38,33,24,97,81,56,30.21,30.16,30.12,10,9,5,10,3,,0.00,3,,304
2012-11-4,44,38,32,39,35,32,100,91,74,30.17,30.10,30.04,10,8,0,14,7,,0.12,6,Fog-Rain,24
2012-11-5,41,38,34,36,35,33,97,89,79,30.21,30.12,29.93,10,8,3,17,10,21,0.00,7,Rain,311
2012-11-6,55,44,34,43,30,23,88,58,29,30.13,30.06,29.92,10,10,10,36,16,46,0.01,1,Rain-Thunderstorm,309
2012-11-7,60,43,26,32,26,22,83,54,26,30.14,30.02,29.86,10,10,10,18,8,23,0.00,0,,191
2012-11-8,58,46,34,37,32,28,94,59,36,29.95,29.88,29.78,10,10,5,21,13,26,0.00,0,,350
2012-11-9,40,37,34,38,36,34,98,94,87,29.93,29.82,29.62,5,2,0,14,9,18,0.00,8,Fog,26
2012-11-10,44,34,23,42,35,20,99,91,77,29.80,29.59,29.52,10,6,0,32,9,41,0.13,8,Fog-Rain-Snow-Thunderstorm,299
2012-11-11,27,21,15,18,12,8,85,68,51,30.12,29.98,29.81,10,10,10,30,22,36,0.04,2,Snow,303
2012-11-12,38,28,17,18,15,11,80,63,40,30.28,30.21,30.12,10,10,10,26,11,32,0.00,0,,270
2012-11-13,47,34,20,28,20,14,83,61,30,30.27,30.23,30.17,10,10,10,9,6,,0.00,3,,229
2012-11-14,57,39,21,33,26,19,91,62,30,30.25,30.18,30.08,10,10,10,15,6,18,0.00,0,,219
2012-11-15,50,38,25,32,28,22,89,70,47,30.45,30.32,30.14,10,10,10,14,7,17,0.00,1,,339
2012-11-16,56,36,17,33,27,16,95,68,35,30.44,30.28,30.15,10,10,7,24,8,30,0.00,0,,171
2012-11-17,58,48,37,35,33,32,79,61,39,30.15,30.07,30.01,10,10,10,21,13,25,0.00,0,,181
2012-11-18,63,48,34,39,35,32,89,69,37,30.02,29.96,29.89,10,10,10,18,9,24,0.00,0,,175
2012-11-19,59,46,32,36,32,27,93,64,36,30.18,30.05,29.90,10,10,10,21,10,25,0.00,0,,301
2012-11-20,70,48,25,32,29,23,88,49,21,30.18,30.08,30.00,10,10,10,17,7,25,0.00,0,,198
2012-11-21,70,54,38,32,29,24,72,42,17,30.00,29.86,29.72,10,10,10,18,10,24,0.00,0,,200
2012-11-22,53,39,25,38,28,12,83,54,31,30.37,29.99,29.71,10,10,10,36,15,44,0.00,1,,301
2012-11-23,34,26,17,13,11,8,77,58,38,30.53,30.43,30.28,10,10,10,28,16,33,0.00,0,,307
2012-11-24,50,36,21,28,18,12,67,48,30,30.28,29.96,29.81,10,10,10,18,9,24,0.00,0,,199
2012-11-25,45,38,31,32,27,24,81,69,54,30.17,30.01,29.90,10,10,10,10,6,,0.00,7,,356
2012-11-26,31,22,13,26,17,11,93,82,65,30.44,30.34,30.16,10,8,2,16,9,18,0.00,3,Snow,317
2012-11-27,39,26,14,31,23,13,91,84,68,30.33,30.20,30.12,10,10,10,15,8,17,0.00,0,,248
2012-11-28,47,31,15,29,23,13,93,72,36,30.28,30.15,30.00,10,10,10,23,7,28,0.00,0,,203
2012-11-29,57,38,19,33,26,18,94,71,33,30.00,29.94,29.84,10,10,7,18,5,26,0.00,0,,245
2012-11-30,50,34,18,30,26,16,93,74,43,30.08,29.98,29.85,10,9,4,13,7,17,0.00,0,,183